createdAt,value
2019-03-09T00:02:08.393Z,3.30
2019-03-09T00:04:13.278Z,3.90
2019-03-09T00:06:18.184Z,3.60
2019-03-09T00:08:22.927Z,3.50
2019-03-09T00:10:28.026Z,3.63
2019-03-09T00:12:32.905Z,3.33
2019-03-09T00:14:37.732Z,3.50
2019-03-09T00:16:42.484Z,3.47
2019-03-09T00:18:47.252Z,3.70
2019-03-09T00:20:52.230Z,3.60
2019-03-09T00:23:12.832Z,3.60
2019-03-09T00:25:24.952Z,3.30
2019-03-09T00:27:41.984Z,3.70
2019-03-09T00:30:06.018Z,3.23
2019-03-09T00:32:14.029Z,3.47
2019-03-09T00:34:19.968Z,3.80
2019-03-09T00:36:28.035Z,3.07
2019-03-09T00:38:32.427Z,3.47
2019-03-09T00:40:37.265Z,3.03
2019-03-09T00:42:42.193Z,3.63
2019-03-09T00:44:46.992Z,3.37
2019-03-09T00:46:51.757Z,3.57
2019-03-09T00:48:56.495Z,3.70
2019-03-09T00:51:01.267Z,3.03
2019-03-09T00:53:05.964Z,3.20
2019-03-09T00:55:13.402Z,3.30
2019-03-09T00:57:18.169Z,3.50
2019-03-09T00:59:22.939Z,3.37
2019-03-09T01:01:27.678Z,3.27
2019-03-09T01:03:32.453Z,3.20
2019-03-09T01:05:37.154Z,3.50
2019-03-09T01:07:41.967Z,3.53
2019-03-09T01:09:46.717Z,3.40
2019-03-09T01:11:51.403Z,3.73
2019-03-09T01:13:56.083Z,3.30
2019-03-09T01:16:00.891Z,3.50
2019-03-09T01:18:06.630Z,3.27
2019-03-09T01:20:13.213Z,3.20
2019-03-09T01:22:17.931Z,3.13
2019-03-09T01:24:22.683Z,3.70
2019-03-09T01:26:27.642Z,3.40
2019-03-09T01:28:32.365Z,2.93
2019-03-09T01:30:37.124Z,3.00
2019-03-09T01:32:41.818Z,3.40
2019-03-09T01:34:46.546Z,3.60
2019-03-09T01:36:51.299Z,3.30
2019-03-09T01:38:56.001Z,3.53
2019-03-09T01:41:00.704Z,3.27
2019-03-09T01:43:05.396Z,3.53
2019-03-09T01:45:11.193Z,3.20
2019-03-09T01:47:15.877Z,3.53
2019-03-09T01:49:20.584Z,3.10
2019-03-09T01:51:25.288Z,3.20
2019-03-09T01:53:36.791Z,3.00
2019-03-09T01:55:36.554Z,3.23
2019-03-09T01:57:41.365Z,2.90
2019-03-09T01:59:46.116Z,3.07
2019-03-09T02:01:50.861Z,3.30
2019-03-09T02:03:55.629Z,3.30
2019-03-09T02:06:00.327Z,3.50
2019-03-09T02:08:05.059Z,3.30
2019-03-09T02:10:09.787Z,3.00
2019-03-09T02:12:14.504Z,2.60
2019-03-09T02:14:19.208Z,3.33
2019-03-09T02:16:23.865Z,3.13
2019-03-09T02:18:28.598Z,3.30
2019-03-09T02:20:33.317Z,2.67
2019-03-09T02:22:38.084Z,3.00
2019-03-09T02:24:42.795Z,3.50
2019-03-09T02:26:47.587Z,3.10
2019-03-09T02:28:52.628Z,3.20
2019-03-09T02:30:57.516Z,3.20
2019-03-09T02:33:02.419Z,3.20
2019-03-09T02:35:08.680Z,2.97
2019-03-09T02:37:13.409Z,3.47
2019-03-09T02:39:29.237Z,3.00
2019-03-09T02:41:33.992Z,3.47
2019-03-09T02:43:38.815Z,3.13
2019-03-09T02:45:43.513Z,2.93
2019-03-09T02:47:48.298Z,3.27
2019-03-09T02:49:52.945Z,3.10
2019-03-09T02:51:57.714Z,2.93
2019-03-09T02:54:02.450Z,3.07
2019-03-09T02:56:07.254Z,2.83
2019-03-09T02:58:11.972Z,3.07
2019-03-09T03:00:17.708Z,3.00
2019-03-09T03:02:33.861Z,3.23
2019-03-09T03:04:38.577Z,2.93
2019-03-09T03:06:43.274Z,3.10
2019-03-09T03:08:48.038Z,3.00
2019-03-09T03:10:52.725Z,3.07
2019-03-09T03:12:57.486Z,3.10
2019-03-09T03:15:02.321Z,2.80
2019-03-09T03:17:07.147Z,3.00
2019-03-09T03:19:11.855Z,3.03
2019-03-09T03:21:16.631Z,3.30
2019-03-09T03:23:21.379Z,3.20
2019-03-09T03:25:26.077Z,2.90
2019-03-09T03:27:31.071Z,3.00
2019-03-09T03:29:35.898Z,3.20
2019-03-09T03:31:40.635Z,3.10
2019-03-09T03:33:45.333Z,2.93
2019-03-09T03:35:50.088Z,2.80
2019-03-09T03:37:54.788Z,3.43
2019-03-09T03:39:59.507Z,3.20
2019-03-09T03:42:04.241Z,2.90
2019-03-09T03:44:08.939Z,3.07
2019-03-09T03:46:14.673Z,2.80
2019-03-09T03:48:19.363Z,2.80
2019-03-09T03:50:24.097Z,3.20
2019-03-09T03:52:28.824Z,3.10
2019-03-09T03:54:33.545Z,2.93
2019-03-09T03:56:38.329Z,3.33
2019-03-09T03:58:43.239Z,3.13
2019-03-09T04:00:48.967Z,2.70
2019-03-09T04:02:53.730Z,2.60
2019-03-09T04:04:58.459Z,3.23
2019-03-09T04:07:03.176Z,2.97
2019-03-09T04:09:07.899Z,3.00
2019-03-09T04:11:12.913Z,2.97
2019-03-09T04:13:17.972Z,3.00
2019-03-09T04:15:22.718Z,3.00
2019-03-09T04:17:27.425Z,2.70
2019-03-09T04:19:32.170Z,2.60
2019-03-09T04:21:36.930Z,3.03
2019-03-09T04:23:41.633Z,2.90
2019-03-09T04:25:46.329Z,2.80
2019-03-09T04:27:51.051Z,3.13
2019-03-09T04:29:55.796Z,3.20
2019-03-09T04:32:00.560Z,3.40
2019-03-09T04:34:05.290Z,2.70
2019-03-09T04:36:10.037Z,2.80
2019-03-09T04:38:14.794Z,3.00
2019-03-09T04:40:19.521Z,2.90
2019-03-09T04:42:24.695Z,2.80
2019-03-09T04:44:29.606Z,2.87
2019-03-09T04:46:34.639Z,2.77
2019-03-09T04:48:39.466Z,3.70
2019-03-09T04:50:44.266Z,3.20
2019-03-09T04:52:49.054Z,3.20
2019-03-09T04:54:53.832Z,2.70
2019-03-09T04:56:59.055Z,3.03
2019-03-09T04:59:03.782Z,2.90
2019-03-09T05:01:08.487Z,2.90
2019-03-09T05:03:13.162Z,2.57
2019-03-09T05:05:17.919Z,3.40
2019-03-09T05:07:34.649Z,3.00
2019-03-09T05:09:53.401Z,3.10
2019-03-09T05:11:58.164Z,3.10
2019-03-09T05:14:12.728Z,2.87
2019-03-09T05:16:18.378Z,2.80
2019-03-09T05:18:23.125Z,3.23
2019-03-09T05:20:27.859Z,3.00
2019-03-09T05:22:33.529Z,3.00
2019-03-09T05:24:38.294Z,3.30
2019-03-09T05:26:44.946Z,3.33
2019-03-09T05:28:49.384Z,2.80
2019-03-09T05:30:54.120Z,2.97
2019-03-09T05:32:58.776Z,3.10
2019-03-09T05:35:03.519Z,2.93
2019-03-09T05:37:09.459Z,2.77
2019-03-09T05:39:14.154Z,3.07
2019-03-09T05:41:18.985Z,3.03
2019-03-09T05:43:24.967Z,3.37
2019-03-09T05:45:29.885Z,2.73
2019-03-09T05:47:34.768Z,2.87
2019-03-09T05:49:39.576Z,3.10
2019-03-09T05:51:44.288Z,2.60
2019-03-09T05:53:49.076Z,3.00
2019-03-09T05:55:53.910Z,2.77
2019-03-09T05:57:58.745Z,2.63
2019-03-09T06:00:04.587Z,3.03
2019-03-09T06:02:09.507Z,2.80
2019-03-09T06:04:14.452Z,2.40
2019-03-09T06:06:19.805Z,2.80
2019-03-09T06:08:24.595Z,2.77
2019-03-09T06:10:29.342Z,2.80
2019-03-09T06:12:34.133Z,2.60
2019-03-09T06:14:38.933Z,2.80
2019-03-09T06:16:43.650Z,2.80
2019-03-09T06:18:48.474Z,2.40
2019-03-09T06:20:53.386Z,2.77
2019-03-09T06:22:58.165Z,3.17
2019-03-09T06:25:02.897Z,2.80
2019-03-09T06:27:07.840Z,2.90
2019-03-09T06:29:12.518Z,2.83
2019-03-09T06:31:17.255Z,2.90
2019-03-09T06:33:33.509Z,2.90
2019-03-09T06:35:38.312Z,2.90
2019-03-09T06:37:47.333Z,3.00
2019-03-09T06:39:53.919Z,2.90
2019-03-09T06:42:23.494Z,3.10
2019-03-09T06:44:28.256Z,2.90
2019-03-09T06:46:32.959Z,2.93
2019-03-09T06:48:38.373Z,3.23
2019-03-09T06:50:43.216Z,2.90
2019-03-09T06:52:48.005Z,3.33
2019-03-09T06:54:53.813Z,3.20
2019-03-09T06:56:58.720Z,3.10
2019-03-09T06:59:03.586Z,2.90
2019-03-09T07:01:18.033Z,2.90
2019-03-09T07:03:22.981Z,2.77
2019-03-09T07:05:28.791Z,3.07
2019-03-09T07:07:33.745Z,3.20
2019-03-09T07:09:38.642Z,3.67
2019-03-09T07:11:43.491Z,3.10
2019-03-09T07:13:52.814Z,2.97
2019-03-09T07:15:54.856Z,2.97
2019-03-09T07:18:08.234Z,3.33
2019-03-09T07:20:13.231Z,3.67
2019-03-09T07:22:18.180Z,3.27
2019-03-09T07:24:24.553Z,3.17
2019-03-09T07:26:29.393Z,3.13
2019-03-09T07:28:34.181Z,3.50
2019-03-09T07:30:39.045Z,3.57
2019-03-09T07:32:44.830Z,3.40
2019-03-09T07:34:49.658Z,3.50
2019-03-09T07:36:54.672Z,3.43
2019-03-09T07:38:59.390Z,3.77
2019-03-09T07:41:05.113Z,3.27
2019-03-09T07:43:09.884Z,3.67
2019-03-09T07:45:14.949Z,3.10
2019-03-09T07:47:19.695Z,2.97
2019-03-09T07:49:24.641Z,3.20
2019-03-09T07:51:29.454Z,2.80
2019-03-09T07:53:34.248Z,2.93
2019-03-09T07:55:39.057Z,3.10
2019-03-09T07:57:43.948Z,4.00
2019-03-09T07:59:48.674Z,3.47
2019-03-09T08:01:53.546Z,3.43
2019-03-09T08:03:58.370Z,3.23
2019-03-09T08:06:03.095Z,3.53
2019-03-09T08:08:07.933Z,3.60
2019-03-09T08:10:14.813Z,3.83
2019-03-09T08:12:19.706Z,3.70
2019-03-09T08:14:24.453Z,2.93
2019-03-09T08:16:35.870Z,3.77
2019-03-09T08:18:37.276Z,3.50
2019-03-09T08:20:42.010Z,3.70
2019-03-09T08:22:48.541Z,4.03
2019-03-09T08:24:53.335Z,3.90
2019-03-09T08:26:58.183Z,3.73
2019-03-09T08:29:03.025Z,3.90
2019-03-09T08:31:08.130Z,3.83
2019-03-09T08:33:13.033Z,3.50
2019-03-09T08:35:18.910Z,3.53
2019-03-09T08:37:23.887Z,4.10
2019-03-09T08:39:51.276Z,3.77
2019-03-09T08:41:57.469Z,3.70
2019-03-09T08:44:02.410Z,3.20
2019-03-09T08:46:07.340Z,3.67
2019-03-09T08:48:12.394Z,3.60
2019-03-09T08:50:18.856Z,3.90
2019-03-09T08:52:23.652Z,3.77
2019-03-09T08:54:28.464Z,3.37
2019-03-09T08:56:33.589Z,3.63
2019-03-09T08:58:38.485Z,3.40
2019-03-09T09:00:43.456Z,3.13
2019-03-09T09:02:48.240Z,3.60
2019-03-09T09:04:53.246Z,3.67
2019-03-09T09:06:58.105Z,3.33
2019-03-09T09:09:03.828Z,3.27
2019-03-09T09:11:10.210Z,3.57
2019-03-09T09:13:14.998Z,3.33
2019-03-09T09:15:19.913Z,3.23
2019-03-09T09:17:24.753Z,2.90
2019-03-09T09:19:29.680Z,3.30
2019-03-09T09:21:34.843Z,3.30
2019-03-09T09:23:39.680Z,3.30
2019-03-09T09:25:45.116Z,3.27
2019-03-09T09:27:51.777Z,3.13
2019-03-09T09:29:56.673Z,3.20
2019-03-09T09:32:01.482Z,3.53
2019-03-09T09:34:06.239Z,3.50
2019-03-09T09:36:11.173Z,3.27
2019-03-09T09:38:17.143Z,3.30
2019-03-09T09:40:22.453Z,3.10
2019-03-09T09:42:27.334Z,3.37
2019-03-09T09:44:35.797Z,2.90
2019-03-09T09:46:40.691Z,3.00
2019-03-09T09:48:45.527Z,3.03
2019-03-09T09:50:50.233Z,3.20
2019-03-09T09:52:55.002Z,3.37
2019-03-09T09:54:59.772Z,3.50
2019-03-09T09:57:04.854Z,3.47
2019-03-09T09:59:09.777Z,3.43
2019-03-09T10:01:14.876Z,3.23
2019-03-09T10:03:20.211Z,3.57
2019-03-09T10:05:37.014Z,3.83
2019-03-09T10:07:43.694Z,4.03
2019-03-09T10:09:48.475Z,4.30
2019-03-09T10:11:54.764Z,4.13
2019-03-09T10:13:59.644Z,3.80
2019-03-09T10:16:05.421Z,4.43
2019-03-09T10:18:11.347Z,4.77
2019-03-09T10:20:16.173Z,4.13
2019-03-09T10:22:21.059Z,4.40
2019-03-09T10:24:25.821Z,4.50
2019-03-09T10:26:30.688Z,5.27
2019-03-09T10:28:36.868Z,4.37
2019-03-09T10:30:44.826Z,4.27
2019-03-09T10:33:00.094Z,4.20
2019-03-09T10:35:16.194Z,5.43
2019-03-09T10:37:41.238Z,4.80
2019-03-09T10:39:48.680Z,4.50
2019-03-09T10:41:53.831Z,4.17
2019-03-09T10:43:58.633Z,3.90
2019-03-09T10:46:03.499Z,5.07
2019-03-09T10:48:09.435Z,5.03
2019-03-09T10:50:17.160Z,5.00
2019-03-09T10:52:22.125Z,4.67
2019-03-09T10:54:35.744Z,4.77
2019-03-09T10:56:33.478Z,4.63
2019-03-09T10:58:47.830Z,4.50
2019-03-09T11:00:52.774Z,4.10
2019-03-09T11:02:57.524Z,3.93
2019-03-09T11:05:02.381Z,3.67
2019-03-09T11:07:07.205Z,4.10
2019-03-09T11:09:11.925Z,3.83
2019-03-09T11:11:16.764Z,3.50
2019-03-09T11:13:21.545Z,3.50
2019-03-09T11:15:26.394Z,3.40
2019-03-09T11:17:31.582Z,3.70
2019-03-09T11:19:36.401Z,3.40
2019-03-09T11:21:41.290Z,3.43
2019-03-09T11:23:46.293Z,3.30
2019-03-09T11:25:51.205Z,3.47
2019-03-09T11:27:56.033Z,3.20
2019-03-09T11:30:00.761Z,3.60
2019-03-09T11:32:06.589Z,3.73
2019-03-09T11:34:11.314Z,3.43
2019-03-09T11:36:17.411Z,3.17
2019-03-09T11:38:22.164Z,4.27
2019-03-09T11:40:27.125Z,3.27
2019-03-09T11:42:31.994Z,3.40
2019-03-09T11:44:36.818Z,3.67
2019-03-09T11:46:41.541Z,4.17
2019-03-09T11:48:46.343Z,3.80
2019-03-09T11:50:51.127Z,3.87
2019-03-09T11:52:56.894Z,4.10
2019-03-09T11:55:01.725Z,3.97
2019-03-09T11:57:06.609Z,3.93
2019-03-09T11:59:11.513Z,4.20
2019-03-09T12:01:16.758Z,3.47
2019-03-09T12:03:21.704Z,3.93
2019-03-09T12:05:27.471Z,4.30
2019-03-09T12:07:32.227Z,5.13
2019-03-09T12:09:36.995Z,5.17
2019-03-09T12:11:41.761Z,4.83
2019-03-09T12:13:46.575Z,4.37
2019-03-09T12:15:51.329Z,5.13
2019-03-09T12:17:56.232Z,5.17
2019-03-09T12:20:01.073Z,4.73
2019-03-09T12:22:07.124Z,4.40
2019-03-09T12:24:16.729Z,4.27
2019-03-09T12:26:18.866Z,4.97
2019-03-09T12:28:23.662Z,4.40
2019-03-09T12:30:32.926Z,4.23
2019-03-09T12:32:37.805Z,4.40
2019-03-09T12:34:42.724Z,3.80
2019-03-09T12:36:47.514Z,3.83
2019-03-09T12:38:52.664Z,4.70
2019-03-09T12:40:57.562Z,4.30
2019-03-09T12:43:02.429Z,4.13
2019-03-09T12:45:08.233Z,4.10
2019-03-09T12:47:13.690Z,4.40
2019-03-09T12:49:19.631Z,3.90
2019-03-09T12:51:25.699Z,4.03
2019-03-09T12:53:31.350Z,4.17
2019-03-09T12:55:40.760Z,4.07
2019-03-09T12:57:46.062Z,3.60
2019-03-09T12:59:52.548Z,3.70
2019-03-09T13:02:02.719Z,3.70
2019-03-09T13:04:12.213Z,3.50
2019-03-09T13:06:17.169Z,3.63
2019-03-09T13:08:23.553Z,3.77
2019-03-09T13:10:28.689Z,3.70
2019-03-09T13:12:33.620Z,3.47
2019-03-09T13:14:39.185Z,3.80
2019-03-09T13:16:44.187Z,3.43
2019-03-09T13:18:48.906Z,3.93
2019-03-09T13:20:55.761Z,3.90
2019-03-09T13:23:00.652Z,4.00
2019-03-09T13:25:10.305Z,3.43
2019-03-09T13:27:15.549Z,3.77
2019-03-09T13:29:20.365Z,3.40
2019-03-09T13:31:28.027Z,3.90
2019-03-09T13:33:34.694Z,3.60
2019-03-09T13:35:39.497Z,3.50
2019-03-09T13:37:44.305Z,3.20
2019-03-09T13:39:50.008Z,3.40
2019-03-09T13:41:54.907Z,4.27
2019-03-09T13:43:59.727Z,3.67
2019-03-09T13:46:04.591Z,3.40
2019-03-09T13:48:09.365Z,3.70
2019-03-09T13:50:14.177Z,3.47
2019-03-09T13:52:19.025Z,3.40
2019-03-09T13:54:23.818Z,3.30
2019-03-09T13:56:40.420Z,3.50
2019-03-09T13:58:45.182Z,3.03
2019-03-09T14:00:50.082Z,3.00
2019-03-09T14:02:54.946Z,2.90
2019-03-09T14:04:59.785Z,3.37
2019-03-09T14:07:04.540Z,3.60
2019-03-09T14:09:09.379Z,3.60
2019-03-09T14:11:14.351Z,4.47
2019-03-09T14:13:19.257Z,3.23
2019-03-09T14:15:24.107Z,3.43
2019-03-09T14:17:28.885Z,2.97
2019-03-09T14:19:33.747Z,3.07
2019-03-09T14:21:38.510Z,3.20
2019-03-09T14:23:43.325Z,3.20
2019-03-09T14:25:48.101Z,3.40
2019-03-09T14:27:52.892Z,3.20
2019-03-09T14:29:57.765Z,3.00
2019-03-09T14:32:02.552Z,3.40
2019-03-09T14:34:07.313Z,2.67
2019-03-09T14:36:12.297Z,3.00
2019-03-09T14:38:17.143Z,3.33
2019-03-09T14:40:22.053Z,3.10
2019-03-09T14:42:27.014Z,2.83
2019-03-09T14:44:31.850Z,2.70
2019-03-09T14:46:36.700Z,2.97
2019-03-09T14:48:41.503Z,2.80
2019-03-09T14:50:46.272Z,3.17
2019-03-09T14:52:51.128Z,2.70
2019-03-09T14:54:55.881Z,2.70
2019-03-09T14:57:00.752Z,3.10
2019-03-09T14:59:06.542Z,2.87
2019-03-09T15:01:11.397Z,2.97
2019-03-09T15:03:16.234Z,2.80
2019-03-09T15:05:21.034Z,2.60
2019-03-09T15:07:25.954Z,3.07
2019-03-09T15:09:30.773Z,2.50
2019-03-09T15:11:35.649Z,2.70
2019-03-09T15:13:40.435Z,2.60
2019-03-09T15:15:45.239Z,2.67
2019-03-09T15:17:50.097Z,2.63
2019-03-09T15:19:55.041Z,2.70
2019-03-09T15:22:00.776Z,2.60
2019-03-09T15:24:05.503Z,2.77
2019-03-09T15:26:10.319Z,2.40
2019-03-09T15:28:15.218Z,2.80
2019-03-09T15:30:20.057Z,2.70
2019-03-09T15:32:26.476Z,2.77
2019-03-09T15:34:31.209Z,2.70
2019-03-09T15:36:35.978Z,2.90
2019-03-09T15:38:40.752Z,2.73
2019-03-09T15:40:45.610Z,2.10
2019-03-09T15:42:50.422Z,2.43
2019-03-09T15:44:55.375Z,3.10
2019-03-09T15:47:00.215Z,2.77
2019-03-09T15:49:05.038Z,2.70
2019-03-09T15:51:09.841Z,2.57
2019-03-09T15:53:14.896Z,2.73
2019-03-09T15:55:19.721Z,2.40
2019-03-09T15:57:24.536Z,2.40
2019-03-09T15:59:29.405Z,2.33
2019-03-09T16:01:34.193Z,2.40
2019-03-09T16:03:40.652Z,2.87
2019-03-09T16:05:45.399Z,2.60
2019-03-09T16:07:50.252Z,2.20
2019-03-09T16:09:54.998Z,2.60
2019-03-09T16:11:59.787Z,2.10
2019-03-09T16:14:04.785Z,2.37
2019-03-09T16:16:11.745Z,2.30
2019-03-09T16:18:16.549Z,2.37
2019-03-09T16:20:21.926Z,2.20
2019-03-09T16:22:26.733Z,2.50
2019-03-09T16:24:31.520Z,2.17
2019-03-09T16:26:36.308Z,2.67
2019-03-09T16:28:41.067Z,2.10
2019-03-09T16:30:45.851Z,2.60
2019-03-09T16:32:50.674Z,2.30
2019-03-09T16:34:55.458Z,2.17
2019-03-09T16:37:00.339Z,2.57
2019-03-09T16:39:05.626Z,2.00
2019-03-09T16:41:11.369Z,2.33
2019-03-09T16:43:16.221Z,2.07
2019-03-09T16:45:21.086Z,2.27
2019-03-09T16:47:25.796Z,2.40
2019-03-09T16:49:30.766Z,1.87
2019-03-09T16:51:35.486Z,2.20
2019-03-09T16:53:40.259Z,2.67
2019-03-09T16:55:44.988Z,2.00
2019-03-09T16:57:49.807Z,1.90
2019-03-09T16:59:54.628Z,2.13
2019-03-09T17:01:59.455Z,2.53
2019-03-09T17:04:04.267Z,2.40
2019-03-09T17:06:09.000Z,2.10
2019-03-09T17:08:13.978Z,2.03
2019-03-09T17:10:19.549Z,1.93
2019-03-09T17:12:24.511Z,2.20
2019-03-09T17:14:30.417Z,2.17
2019-03-09T17:16:35.313Z,2.70
2019-03-09T17:18:40.196Z,2.20
2019-03-09T17:20:45.038Z,2.17
2019-03-09T17:22:50.014Z,2.60
2019-03-09T17:24:54.801Z,2.23
2019-03-09T17:26:59.552Z,2.60
2019-03-09T17:29:04.457Z,1.90
2019-03-09T17:31:11.002Z,2.10
2019-03-09T17:33:15.964Z,2.07
2019-03-09T17:35:21.825Z,2.37
2019-03-09T17:37:28.781Z,2.10
2019-03-09T17:39:33.661Z,2.20
2019-03-09T17:41:38.532Z,2.20
2019-03-09T17:43:43.411Z,2.17
2019-03-09T17:45:48.322Z,2.30
2019-03-09T17:47:53.178Z,2.20
2019-03-09T17:49:59.205Z,2.00
2019-03-09T17:52:04.138Z,2.40
2019-03-09T17:54:08.860Z,2.33
2019-03-09T17:56:13.712Z,2.20
2019-03-09T17:58:18.554Z,2.40
2019-03-09T18:00:23.895Z,2.20
2019-03-09T18:02:28.713Z,2.33
2019-03-09T18:04:33.451Z,2.20
2019-03-09T18:06:38.221Z,2.27
2019-03-09T18:08:43.094Z,2.20
2019-03-09T18:10:54.855Z,2.03
2019-03-09T18:13:12.612Z,2.23
2019-03-09T18:15:25.235Z,2.10
2019-03-09T18:17:32.698Z,2.23
2019-03-09T18:19:51.786Z,2.10
2019-03-09T18:21:59.231Z,2.17
2019-03-09T18:24:07.776Z,2.30
2019-03-09T18:26:18.637Z,2.37
2019-03-09T18:28:25.222Z,2.40
2019-03-09T18:30:31.424Z,2.50
2019-03-09T18:32:38.216Z,2.30
2019-03-09T18:34:47.618Z,2.20
2019-03-09T18:36:56.747Z,2.30
2019-03-09T18:39:05.255Z,2.60
2019-03-09T18:41:12.169Z,2.50
2019-03-09T18:43:19.925Z,2.20
2019-03-09T18:45:31.369Z,2.20
2019-03-09T18:47:46.076Z,2.50
2019-03-09T18:49:56.167Z,2.20
2019-03-09T18:52:12.002Z,2.50
2019-03-09T18:54:17.366Z,2.60
2019-03-09T18:56:48.102Z,2.20
2019-03-09T18:58:56.298Z,2.53
2019-03-09T19:01:01.357Z,2.37
2019-03-09T19:03:07.758Z,2.83
2019-03-09T19:05:12.634Z,2.77
2019-03-09T19:07:17.674Z,3.20
2019-03-09T19:09:22.554Z,3.03
2019-03-09T19:11:27.434Z,2.77
2019-03-09T19:13:32.373Z,2.97
2019-03-09T19:15:38.841Z,2.70
2019-03-09T19:17:43.714Z,2.93
2019-03-09T19:19:48.844Z,3.20
2019-03-09T19:21:53.723Z,3.50
2019-03-09T19:23:58.490Z,3.90
2019-03-09T19:26:03.340Z,3.70
2019-03-09T19:28:09.473Z,3.80
2019-03-09T19:30:17.307Z,3.77
2019-03-09T19:32:27.605Z,4.13
2019-03-09T19:34:43.050Z,4.60
2019-03-09T19:36:47.837Z,4.40
2019-03-09T19:38:52.678Z,4.30
2019-03-09T19:40:57.601Z,4.90
2019-03-09T19:43:03.695Z,4.83
2019-03-09T19:45:10.080Z,4.10
2019-03-09T19:47:15.022Z,4.07
2019-03-09T19:49:19.872Z,3.73
2019-03-09T19:51:27.858Z,4.17
2019-03-09T19:53:32.833Z,4.20
2019-03-09T19:55:37.650Z,4.83
2019-03-09T19:57:43.812Z,4.13
2019-03-09T19:59:48.738Z,3.60
2019-03-09T20:01:53.881Z,4.03
2019-03-09T20:03:58.712Z,4.10
2019-03-09T20:06:03.570Z,5.03
2019-03-09T20:08:19.014Z,4.13
2019-03-09T20:10:23.972Z,4.00
2019-03-09T20:12:29.439Z,4.30
2019-03-09T20:14:37.569Z,4.53
2019-03-09T20:16:42.394Z,4.60
2019-03-09T20:18:47.420Z,4.60
2019-03-09T20:20:52.205Z,4.60
2019-03-09T20:22:57.114Z,4.93
2019-03-09T20:25:03.103Z,4.83
2019-03-09T20:27:11.421Z,4.50
2019-03-09T20:29:18.604Z,4.13
2019-03-09T20:31:23.504Z,4.33
2019-03-09T20:33:28.492Z,5.07
2019-03-09T20:35:35.068Z,4.60
2019-03-09T20:37:43.015Z,4.17
2019-03-09T20:39:48.392Z,4.23
2019-03-09T20:41:55.714Z,4.03
2019-03-09T20:44:00.515Z,4.53
2019-03-09T20:46:05.434Z,4.23
2019-03-09T20:48:12.494Z,4.20
2019-03-09T20:50:17.339Z,3.90
2019-03-09T20:52:22.293Z,4.23
2019-03-09T20:54:27.147Z,4.23
2019-03-09T20:56:32.135Z,4.50
2019-03-09T20:58:36.909Z,4.13
2019-03-09T21:00:41.815Z,4.07
2019-03-09T21:02:56.712Z,4.23
2019-03-09T21:05:01.989Z,4.10
2019-03-09T21:07:06.880Z,4.00
2019-03-09T21:09:11.729Z,3.53
2019-03-09T21:11:19.129Z,3.93
2019-03-09T21:13:28.995Z,4.27
2019-03-09T21:15:44.504Z,4.00
2019-03-09T21:17:49.529Z,4.27
2019-03-09T21:19:54.358Z,3.80
2019-03-09T21:22:04.054Z,3.97
2019-03-09T21:24:09.377Z,4.37
2019-03-09T21:26:15.021Z,4.20
2019-03-09T21:28:24.517Z,3.60
2019-03-09T21:30:29.680Z,4.20
2019-03-09T21:32:34.591Z,3.97
2019-03-09T21:34:39.531Z,4.20
2019-03-09T21:36:44.473Z,4.10
2019-03-09T21:38:49.512Z,4.23
2019-03-09T21:40:54.319Z,3.90
2019-03-09T21:43:08.954Z,4.60
2019-03-09T21:45:13.871Z,3.97
2019-03-09T21:47:18.731Z,3.90
2019-03-09T21:49:23.974Z,3.77
2019-03-09T21:51:31.071Z,3.83
2019-03-09T21:53:35.993Z,3.90
2019-03-09T21:55:40.784Z,3.97
2019-03-09T21:58:06.970Z,4.43
2019-03-09T22:00:15.543Z,4.30
2019-03-09T22:02:20.469Z,3.73
2019-03-09T22:04:25.369Z,3.60
2019-03-09T22:06:30.165Z,3.67
2019-03-09T22:08:35.053Z,4.10
2019-03-09T22:10:45.337Z,3.60
2019-03-09T22:12:51.374Z,4.27
2019-03-09T22:14:56.236Z,4.13
2019-03-09T22:17:01.100Z,3.73
2019-03-09T22:19:06.054Z,3.70
2019-03-09T22:21:11.605Z,3.77
2019-03-09T22:23:16.612Z,3.73
2019-03-09T22:25:23.638Z,3.50
2019-03-09T22:27:30.600Z,3.67
2019-03-09T22:29:35.405Z,4.30
2019-03-09T22:31:43.526Z,3.57
2019-03-09T22:33:48.556Z,4.13
2019-03-09T22:35:55.877Z,3.60
2019-03-09T22:38:00.708Z,3.87
2019-03-09T22:40:06.189Z,3.60
2019-03-09T22:42:10.952Z,3.63
2019-03-09T22:44:15.976Z,3.97
2019-03-09T22:46:28.143Z,4.07
2019-03-09T22:48:33.996Z,3.23
2019-03-09T22:50:39.023Z,3.50
2019-03-09T22:52:44.005Z,3.50
2019-03-09T22:54:48.996Z,3.63
2019-03-09T22:56:54.224Z,3.40
2019-03-09T22:58:59.177Z,4.03
2019-03-09T23:01:03.928Z,3.80
2019-03-09T23:03:09.016Z,3.80
2019-03-09T23:05:13.861Z,3.43
2019-03-09T23:07:18.675Z,3.67
2019-03-09T23:09:23.658Z,3.57
2019-03-09T23:11:28.536Z,3.60
2019-03-09T23:13:33.443Z,3.43
2019-03-09T23:15:38.476Z,3.30
2019-03-09T23:17:43.472Z,3.30
2019-03-09T23:19:48.219Z,4.00
2019-03-09T23:21:53.067Z,3.50
2019-03-09T23:23:57.980Z,3.37
2019-03-09T23:26:05.116Z,3.57
2019-03-09T23:28:09.935Z,3.17
2019-03-09T23:30:16.185Z,3.73
2019-03-09T23:32:21.177Z,3.43
2019-03-09T23:34:26.049Z,3.50
2019-03-09T23:36:30.950Z,3.30
2019-03-09T23:38:35.678Z,3.73
2019-03-09T23:40:40.490Z,3.27
2019-03-09T23:42:45.318Z,3.90
2019-03-09T23:44:50.110Z,4.33
2019-03-09T23:46:55.255Z,3.40
2019-03-09T23:49:00.158Z,3.50
2019-03-09T23:51:05.033Z,3.40
2019-03-09T23:53:09.850Z,3.30
2019-03-09T23:55:22.167Z,3.27
2019-03-09T23:57:21.306Z,3.20
2019-03-09T23:59:26.054Z,3.50
